Time;durP1;ratioP1;P1;durP2;ratioP2;P2;SDS_P1;SDS_P2;PMS_P1;PMS_P2;Temp;Humidity;BMP_temperature;BMP_pressure;BME280_temperature;BME280_humidity;BME280_pressure;Samples;Min_cycle;Max_cycle;Signal;HPM_P1;HPM_P2
2021/04/29 00:00:02;;;;;;;1.20;1.10;;;26.50;47.00;;;;;;5015009;28;20447;-84
2021/04/29 00:02:29;;;;;;;1.17;1.07;;;26.50;47.70;;;;;;5014652;28;20498;-85
2021/04/29 00:04:55;;;;;;;1.27;1.17;;;26.50;47.00;;;;;;5014756;28;20459;-85
2021/04/29 00:07:21;;;;;;;1.33;1.23;;;26.50;47.00;;;;;;5014594;28;20886;-85
2021/04/29 00:09:47;;;;;;;1.30;1.10;;;26.50;47.00;;;;;;5014534;28;20464;-84
2021/04/29 00:12:14;;;;;;;1.50;1.17;;;26.50;47.00;;;;;;5014319;28;20459;-84
2021/04/29 00:14:41;;;;;;;1.40;1.30;;;26.50;47.10;;;;;;5014535;28;21010;-84
2021/04/29 00:17:07;;;;;;;1.47;1.20;;;26.50;47.10;;;;;;5014432;28;20436;-84
2021/04/29 00:19:33;;;;;;;1.33;1.23;;;26.50;47.20;;;;;;5014283;28;20492;-84
2021/04/29 00:22:00;;;;;;;1.17;1.00;;;26.50;47.20;;;;;;5014299;28;20943;-84
2021/04/29 00:24:26;;;;;;;1.10;1.00;;;26.50;47.20;;;;;;5014227;28;20539;-85
2021/04/29 00:26:52;;;;;;;1.30;1.10;;;26.50;47.20;;;;;;5014074;28;20447;-85
2021/04/29 00:29:19;;;;;;;1.30;1.20;;;26.40;47.20;;;;;;5014335;28;20442;-85
2021/04/29 00:31:46;;;;;;;1.27;1.17;;;26.40;47.30;;;;;;5014287;28;20443;-84
2021/04/29 00:34:12;;;;;;;1.43;1.33;;;26.40;47.20;;;;;;5014131;28;20495;-85
2021/04/29 00:36:38;;;;;;;1.10;1.00;;;26.40;47.20;;;;;;4996530;28;20483;-85
2021/04/29 00:39:05;;;;;;;1.23;1.13;;;26.40;47.30;;;;;;4994438;28;20503;-85
2021/04/29 00:41:31;;;;;;;1.37;1.23;;;26.40;47.30;;;;;;4994532;28;20810;-85
2021/04/29 00:43:58;;;;;;;1.17;1.00;;;26.40;47.30;;;;;;4994471;28;20444;-84
2021/04/29 00:46:24;;;;;;;1.83;1.20;;;26.40;47.30;;;;;;4994684;28;20785;-85
2021/04/29 00:48:51;;;;;;;1.40;1.17;;;26.40;47.40;;;;;;4993884;28;20456;-85
2021/04/29 00:51:19;;;;;;;1.90;1.33;;;26.40;47.30;;;;;;4994695;28;20535;-85
2021/04/29 00:53:46;;;;;;;1.10;1.00;;;26.40;47.30;;;;;;4994714;28;20447;-85
2021/04/29 00:56:12;;;;;;;1.10;1.00;;;26.40;47.40;;;;;;4994621;28;20453;-85
2021/04/29 00:58:39;;;;;;;1.20;1.10;;;26.40;47.40;;;;;;4994506;28;20511;-85
2021/04/29 01:01:06;;;;;;;1.10;1.00;;;26.60;47.60;;;;;;4994246;28;20990;-85
2021/04/29 01:03:37;;;;;;;1.10;1.00;;;26.40;47.40;;;;;;4994157;28;20445;-85
2021/04/29 01:06:08;;;;;;;1.20;1.10;;;26.40;47.50;;;;;;4994059;28;20448;-85
2021/04/29 01:08:43;;;;;;;1.30;1.20;;;26.40;47.50;;;;;;4994200;28;20441;-85
2021/04/29 01:11:14;;;;;;;1.10;1.00;;;26.40;47.50;;;;;;4994106;28;20470;-85
2021/04/29 01:13:46;;;;;;;1.43;1.13;;;26.40;47.60;;;;;;4994144;28;20455;-84
2021/04/29 01:16:13;;;;;;;1.43;1.00;;;26.40;47.60;;;;;;4994265;28;20825;-84
2021/04/29 01:18:40;;;;;;;2.07;1.00;;;26.40;47.60;;;;;;4993182;28;20492;-86
2021/04/29 01:21:12;;;;;;;1.50;1.23;;;26.40;47.70;;;;;;4993984;28;20444;-85
2021/04/29 01:23:49;;;;;;;1.10;0.97;;;26.40;47.60;;;;;;4994082;28;20452;-84
2021/04/29 01:26:20;;;;;;;1.20;1.10;;;26.40;47.60;;;;;;4993903;28;20467;-85
2021/04/29 01:28:48;;;;;;;1.07;0.97;;;26.40;47.60;;;;;;4994006;28;20475;-85
2021/04/29 01:31:15;;;;;;;1.40;1.00;;;26.40;47.60;;;;;;4993676;28;20445;-84
2021/04/29 01:33:41;;;;;;;1.30;1.07;;;26.40;47.70;;;;;;4993997;28;20443;-84
2021/04/29 01:36:10;;;;;;;1.30;1.07;;;26.30;47.60;;;;;;4993609;28;20484;-85
2021/04/29 01:38:38;;;;;;;1.30;1.00;;;26.30;48.10;;;;;;4993742;28;20496;-86
2021/04/29 01:41:05;;;;;;;1.10;1.00;;;26.30;47.50;;;;;;4993885;28;20467;-85
2021/04/29 01:43:32;;;;;;;1.23;1.13;;;26.30;47.60;;;;;;4994094;28;20440;-85
2021/04/29 01:46:01;;;;;;;1.17;1.03;;;26.30;47.70;;;;;;4994208;28;20920;-85
2021/04/29 01:48:28;;;;;;;1.20;1.10;;;26.30;47.70;;;;;;4993734;28;20458;-85
2021/04/29 01:50:55;;;;;;;1.20;1.10;;;26.30;47.70;;;;;;4993932;28;20525;-85
2021/04/29 01:53:21;;;;;;;1.17;1.07;;;26.30;47.50;;;;;;4993808;28;20445;-85
2021/04/29 01:55:49;;;;;;;1.50;1.00;;;26.30;47.60;;;;;;4993879;28;20453;-85
2021/04/29 01:58:15;;;;;;;1.20;1.10;;;26.30;47.70;;;;;;4993866;28;20488;-84
2021/04/29 02:00:41;;;;;;;1.20;1.10;;;26.30;47.80;;;;;;4993511;28;20450;-84
2021/04/29 02:03:08;;;;;;;1.20;1.00;;;26.30;47.80;;;;;;4997535;28;20446;-85
2021/04/29 02:05:35;;;;;;;1.20;1.00;;;26.30;47.70;;;;;;4997309;28;20457;-85
2021/04/29 02:08:01;;;;;;;1.10;1.00;;;26.30;47.70;;;;;;4997441;28;20948;-85
2021/04/29 02:10:27;;;;;;;1.40;1.30;;;26.30;47.70;;;;;;4997171;28;20467;-84
2021/04/29 02:12:56;;;;;;;1.67;1.57;;;26.30;47.70;;;;;;4997166;28;20949;-85
2021/04/29 02:15:28;;;;;;;1.50;1.40;;;26.20;47.80;;;;;;4996966;28;20444;-85
2021/04/29 02:17:59;;;;;;;1.30;1.00;;;26.20;47.80;;;;;;4997098;28;20876;-85
2021/04/29 02:20:28;;;;;;;1.20;1.10;;;26.20;47.80;;;;;;4996868;28;20450;-85
2021/04/29 02:22:55;;;;;;;1.40;1.23;;;26.20;47.70;;;;;;4997211;28;20452;-85
2021/04/29 02:25:25;;;;;;;1.17;1.07;;;26.20;47.70;;;;;;4996812;28;20440;-85
2021/04/29 02:27:52;;;;;;;1.00;0.90;;;26.20;47.80;;;;;;4996912;28;20455;-84
2021/04/29 02:30:19;;;;;;;1.20;1.10;;;26.20;47.80;;;;;;4996822;28;20446;-85
2021/04/29 02:32:46;;;;;;;1.00;0.90;;;26.20;47.80;;;;;;4996794;28;20504;-85
2021/04/29 02:35:14;;;;;;;1.30;1.20;;;26.40;47.90;;;;;;4996428;28;20483;-85
2021/04/29 02:37:43;;;;;;;1.10;0.90;;;26.20;47.80;;;;;;4996591;28;20448;-84
2021/04/29 02:40:12;;;;;;;1.10;1.00;;;26.20;47.80;;;;;;4996500;28;20938;-85
2021/04/29 02:42:39;;;;;;;1.50;1.40;;;26.20;47.80;;;;;;4996529;28;20449;-85
2021/04/29 02:45:08;;;;;;;1.20;0.90;;;26.20;48.00;;;;;;4996751;28;20476;-85
2021/04/29 02:47:34;;;;;;;1.13;1.00;;;26.20;47.80;;;;;;4996632;28;20448;-85
2021/04/29 02:50:00;;;;;;;1.10;1.00;;;26.20;47.90;;;;;;4996462;28;20479;-85
2021/04/29 02:52:27;;;;;;;1.40;1.30;;;26.20;47.90;;;;;;4996568;28;20445;-85
2021/04/29 02:54:55;;;;;;;1.20;1.10;;;26.20;47.90;;;;;;4996708;28;20528;-85
2021/04/29 02:57:21;;;;;;;1.40;1.30;;;26.20;47.80;;;;;;4996573;28;20454;-84
2021/04/29 02:59:48;;;;;;;1.03;0.93;;;26.20;47.90;;;;;;4996307;28;20492;-84
2021/04/29 03:02:15;;;;;;;1.20;1.00;;;26.20;48.00;;;;;;4996597;28;20440;-85
2021/04/29 03:04:42;;;;;;;1.30;1.00;;;26.20;48.00;;;;;;4996305;28;20522;-85
2021/04/29 03:07:08;;;;;;;1.10;1.00;;;26.20;48.10;;;;;;4996327;28;20783;-85
2021/04/29 03:09:34;;;;;;;1.13;1.03;;;26.20;48.10;;;;;;4995778;28;20491;-84
2021/04/29 03:12:02;;;;;;;1.07;0.97;;;26.20;48.00;;;;;;4995764;28;20444;-85
2021/04/29 03:14:28;;;;;;;1.17;1.07;;;26.20;48.10;;;;;;4996412;28;20849;-85
2021/04/29 03:16:54;;;;;;;1.63;1.00;;;26.20;47.90;;;;;;4996309;28;20515;-84
2021/04/29 03:19:20;;;;;;;1.30;1.20;;;26.20;47.90;;;;;;4995896;28;20834;-86
2021/04/29 03:21:47;;;;;;;1.30;1.20;;;26.20;47.90;;;;;;4995963;28;20939;-85
2021/04/29 03:24:13;;;;;;;1.30;1.13;;;26.20;48.00;;;;;;4995857;28;20441;-85
2021/04/29 03:26:39;;;;;;;1.30;1.20;;;26.20;48.10;;;;;;4995947;28;20549;-85
2021/04/29 03:29:06;;;;;;;1.33;1.23;;;26.20;48.00;;;;;;4995843;28;20454;-85
2021/04/29 03:31:34;;;;;;;1.30;1.20;;;26.20;48.10;;;;;;4995599;28;20445;-85
2021/04/29 03:34:00;;;;;;;1.40;1.30;;;26.20;48.00;;;;;;4995642;28;20499;-85
2021/04/29 03:36:26;;;;;;;1.13;1.03;;;26.20;48.10;;;;;;4995612;28;20884;-85
2021/04/29 03:38:53;;;;;;;1.40;1.23;;;26.20;48.00;;;;;;4995358;28;20492;-85
2021/04/29 03:41:19;;;;;;;1.10;1.00;;;26.20;48.00;;;;;;4995695;28;20473;-85
2021/04/29 03:43:45;;;;;;;1.60;1.43;;;26.20;48.10;;;;;;4995843;28;20433;-84
2021/04/29 03:46:13;;;;;;;1.63;1.50;;;26.20;48.00;;;;;;4995561;28;20449;-84
2021/04/29 03:48:39;;;;;;;1.57;1.47;;;26.20;48.10;;;;;;4995541;28;20801;-86
2021/04/29 03:51:05;;;;;;;1.73;1.60;;;26.20;48.00;;;;;;4995340;28;20467;-85
2021/04/29 03:53:32;;;;;;;1.33;1.23;;;26.20;48.10;;;;;;4995284;28;20452;-85
2021/04/29 03:55:58;;;;;;;1.83;1.73;;;26.20;48.10;;;;;;4995421;28;20943;-85
2021/04/29 03:58:25;;;;;;;1.47;1.37;;;26.20;48.10;;;;;;4995114;28;20575;-86
2021/04/29 04:00:51;;;;;;;1.33;1.23;;;26.20;48.10;;;;;;4995041;28;20945;-85
2021/04/29 04:03:18;;;;;;;1.20;1.10;;;26.20;48.10;;;;;;4994967;28;20449;-85
2021/04/29 04:05:44;;;;;;;1.50;1.40;;;26.20;48.10;;;;;;4995160;28;20445;-85
2021/04/29 04:08:11;;;;;;;1.67;1.40;;;26.20;48.10;;;;;;4995168;28;20445;-85
2021/04/29 04:10:37;;;;;;;1.47;1.37;;;26.20;48.10;;;;;;4994994;28;20465;-85
2021/04/29 04:13:03;;;;;;;1.33;1.23;;;26.20;48.10;;;;;;4995073;28;20452;-85
2021/04/29 04:15:30;;;;;;;1.20;1.10;;;26.20;48.10;;;;;;4995046;28;20565;-85
2021/04/29 04:17:56;;;;;;;1.73;1.63;;;26.20;48.00;;;;;;4994932;28;20555;-85
2021/04/29 04:20:23;;;;;;;1.20;1.10;;;26.20;48.10;;;;;;4994699;28;20448;-85
2021/04/29 04:22:50;;;;;;;1.53;1.40;;;26.20;48.10;;;;;;4995256;28;20948;-86
2021/04/29 04:25:17;;;;;;;1.40;1.30;;;26.20;48.00;;;;;;4993962;28;20441;-86
2021/04/29 04:27:43;;;;;;;1.33;1.23;;;26.20;48.10;;;;;;4994911;28;20923;-85
2021/04/29 04:30:11;;;;;;;1.20;1.10;;;26.20;48.10;;;;;;4994735;28;20444;-85
2021/04/29 04:32:37;;;;;;;1.30;1.20;;;26.30;48.20;;;;;;4994856;28;20923;-85
2021/04/29 04:35:05;;;;;;;1.50;1.40;;;26.20;48.10;;;;;;4994310;28;20487;-85
2021/04/29 04:37:32;;;;;;;1.47;1.37;;;26.20;48.10;;;;;;4994495;28;20432;-85
2021/04/29 04:39:58;;;;;;;1.30;1.20;;;26.20;48.20;;;;;;4994231;28;20492;-85
2021/04/29 04:42:25;;;;;;;1.30;1.20;;;26.20;48.10;;;;;;4994258;28;20443;-85
2021/04/29 04:44:51;;;;;;;1.30;1.10;;;26.20;48.20;;;;;;4994475;28;20515;-85
2021/04/29 04:47:18;;;;;;;1.20;1.10;;;26.40;48.40;;;;;;4994501;28;20533;-85
2021/04/29 04:49:44;;;;;;;1.33;1.23;;;26.20;48.20;;;;;;4994585;28;20453;-85
2021/04/29 04:52:11;;;;;;;1.53;1.43;;;26.20;48.20;;;;;;4994351;28;20441;-85
2021/04/29 04:54:38;;;;;;;1.40;1.30;;;26.20;48.10;;;;;;4994389;28;20490;-84
2021/04/29 04:57:05;;;;;;;1.60;1.50;;;26.30;48.10;;;;;;4994443;28;20449;-84
2021/04/29 04:59:31;;;;;;;1.20;1.10;;;26.30;48.10;;;;;;4993869;28;21014;-85
2021/04/29 05:01:57;;;;;;;1.30;1.20;;;26.30;48.10;;;;;;4994344;28;20841;-85
2021/04/29 05:04:27;;;;;;;1.40;1.30;;;26.30;48.20;;;;;;4994267;28;20451;-85
2021/04/29 05:06:54;;;;;;;1.60;1.43;;;26.30;48.20;;;;;;4994652;28;20810;-85
2021/04/29 05:09:21;;;;;;;1.43;1.33;;;26.30;48.20;;;;;;4994055;28;20476;-85
2021/04/29 05:11:48;;;;;;;1.57;1.47;;;26.30;48.20;;;;;;4994256;28;20491;-85
2021/04/29 05:14:14;;;;;;;1.40;1.20;;;26.30;48.20;;;;;;4994256;28;20446;-85
2021/04/29 05:16:40;;;;;;;1.33;1.23;;;26.30;48.10;;;;;;4994316;28;20491;-85
2021/04/29 05:19:07;;;;;;;1.43;1.33;;;26.30;48.20;;;;;;4994046;28;20473;-86
2021/04/29 05:21:33;;;;;;;2.03;1.40;;;26.30;48.10;;;;;;4993917;28;20941;-84
2021/04/29 05:24:00;;;;;;;1.40;1.10;;;26.30;48.10;;;;;;4994133;28;20486;-84
2021/04/29 05:26:26;;;;;;;1.40;1.30;;;26.30;48.00;;;;;;4994000;28;20474;-84
2021/04/29 05:28:53;;;;;;;1.70;1.60;;;26.40;48.10;;;;;;4993769;28;20441;-85
2021/04/29 05:31:20;;;;;;;1.20;1.10;;;26.40;48.20;;;;;;4993982;28;20444;-84
2021/04/29 05:33:46;;;;;;;1.30;1.20;;;26.40;48.20;;;;;;4993949;28;20548;-83
2021/04/29 05:36:12;;;;;;;1.80;1.70;;;26.40;48.30;;;;;;4996108;28;20480;-84
2021/04/29 05:38:39;;;;;;;1.70;1.60;;;26.40;48.20;;;;;;4997862;28;20538;-84
2021/04/29 05:41:05;;;;;;;1.40;1.30;;;26.40;48.20;;;;;;4997644;28;20465;-84
2021/04/29 05:43:31;;;;;;;1.50;1.40;;;26.40;48.30;;;;;;4997834;28;20437;-84
2021/04/29 05:45:58;;;;;;;1.23;1.13;;;26.40;48.20;;;;;;4997806;28;20452;-84
2021/04/29 05:48:25;;;;;;;1.40;1.30;;;26.40;48.20;;;;;;4997502;28;20505;-85
2021/04/29 05:50:51;;;;;;;1.67;1.57;;;26.40;48.10;;;;;;4997748;28;20445;-84
2021/04/29 05:53:17;;;;;;;1.50;1.40;;;26.40;48.20;;;;;;4997820;28;20436;-84
2021/04/29 05:55:43;;;;;;;2.00;1.90;;;26.40;48.20;;;;;;4997678;28;20451;-85
2021/04/29 05:58:10;;;;;;;1.47;1.37;;;26.40;48.30;;;;;;4997631;28;20482;-84
2021/04/29 06:00:36;;;;;;;1.90;1.80;;;26.40;48.30;;;;;;4997380;28;20843;-84
2021/04/29 06:03:04;;;;;;;1.87;1.77;;;26.40;48.40;;;;;;4997433;28;20458;-85
2021/04/29 06:05:30;;;;;;;1.50;1.40;;;26.40;48.40;;;;;;4997396;28;20456;-84
2021/04/29 06:07:57;;;;;;;1.70;1.47;;;26.40;48.40;;;;;;4997469;28;20453;-84
2021/04/29 06:10:23;;;;;;;1.60;1.50;;;26.40;48.30;;;;;;4997140;28;20523;-85
2021/04/29 06:12:50;;;;;;;1.63;1.53;;;26.40;48.40;;;;;;4997095;28;21008;-84
2021/04/29 06:15:17;;;;;;;1.80;1.70;;;26.40;48.40;;;;;;4997125;28;20787;-84
2021/04/29 06:17:43;;;;;;;1.73;1.63;;;26.40;48.40;;;;;;4996933;28;21024;-84
2021/04/29 06:20:12;;;;;;;1.60;1.50;;;26.40;48.40;;;;;;4996829;28;20488;-84
2021/04/29 06:22:38;;;;;;;1.87;1.70;;;26.40;49.00;;;;;;4996892;28;20446;-84
2021/04/29 06:25:06;;;;;;;1.30;1.20;;;26.40;48.50;;;;;;4996797;28;20532;-84
2021/04/29 06:27:33;;;;;;;2.20;2.00;;;26.40;48.40;;;;;;4996927;28;20441;-85
2021/04/29 06:30:00;;;;;;;1.70;1.60;;;26.40;48.40;;;;;;4996905;28;20443;-84
2021/04/29 06:32:26;;;;;;;2.00;1.90;;;26.40;48.40;;;;;;4996974;28;20795;-85
2021/04/29 06:34:53;;;;;;;1.83;1.73;;;26.40;48.40;;;;;;4996188;28;20535;-86
2021/04/29 06:37:20;;;;;;;4.63;4.30;;;26.40;48.40;;;;;;4984358;28;20532;-84
2021/04/29 06:39:47;;;;;;;3.40;3.10;;;26.40;47.60;;;;;;4976776;28;20517;-90
2021/04/29 06:42:13;;;;;;;7.03;2.77;;;26.30;47.60;;;;;;4977119;28;20457;-85
2021/04/29 06:44:40;;;;;;;2.63;2.03;;;26.30;47.70;;;;;;4977113;28;20503;-86
2021/04/29 06:47:06;;;;;;;2.53;1.90;;;26.40;47.80;;;;;;4976222;28;20453;-86
2021/04/29 06:49:33;;;;;;;2.40;2.20;;;26.30;48.20;;;;;;4977260;28;20448;-86
2021/04/29 06:51:59;;;;;;;6.37;2.80;;;26.30;48.70;;;;;;4977034;28;20442;-88
2021/04/29 06:54:27;;;;;;;4.03;2.37;;;26.30;48.80;;;;;;4977151;28;20445;-86
2021/04/29 06:56:53;;;;;;;3.37;2.43;;;26.40;48.80;;;;;;4977102;28;20917;-85
2021/04/29 06:59:20;;;;;;;3.40;1.40;;;26.40;48.80;;;;;;4976812;28;20492;-84
2021/04/29 07:01:47;;;;;;;3.83;1.40;;;26.30;48.60;;;;;;4976757;28;20443;-86
2021/04/29 07:04:13;;;;;;;2.77;2.40;;;26.30;48.40;;;;;;4976845;28;20499;-84
2021/04/29 07:06:39;;;;;;;4.30;1.50;;;26.30;48.40;;;;;;4976904;28;20441;-84
2021/04/29 07:09:06;;;;;;;6.07;2.27;;;26.30;48.50;;;;;;4976810;28;20441;-84
2021/04/29 07:11:33;;;;;;;3.17;1.90;;;26.40;48.60;;;;;;4976676;28;20460;-84
2021/04/29 07:14:00;;;;;;;1.90;1.80;;;26.40;48.60;;;;;;4976731;28;20806;-88
2021/04/29 07:16:26;;;;;;;3.60;1.90;;;26.40;48.60;;;;;;4976642;28;20492;-84
2021/04/29 07:18:52;;;;;;;1.93;1.73;;;26.50;48.70;;;;;;4976426;28;20915;-84
2021/04/29 07:21:19;;;;;;;3.90;2.60;;;26.50;48.70;;;;;;4976367;28;20495;-85
2021/04/29 07:23:47;;;;;;;3.80;3.10;;;26.60;49.20;;;;;;4976640;28;20845;-85
2021/04/29 07:26:16;;;;;;;4.53;3.17;;;26.60;49.00;;;;;;4976352;28;20445;-86
2021/04/29 07:28:44;;;;;;;5.40;1.90;;;26.70;48.80;;;;;;4976823;28;20537;-87
2021/04/29 07:31:10;;;;;;;4.20;2.20;;;26.60;48.80;;;;;;4976619;28;20439;-93
2021/04/29 07:33:37;;;;;;;4.83;2.20;;;26.60;49.10;;;;;;4976761;28;20456;-86
2021/04/29 07:38:43;;;;;;;5.53;3.43;;;26.70;48.90;;;;;;5055632;23;20486;-92
2021/04/29 07:41:10;;;;;;;5.00;3.07;;;26.60;47.90;;;;;;5054598;28;20550;-84
2021/04/29 07:43:36;;;;;;;1.77;1.63;;;26.60;48.50;;;;;;5054241;28;20450;-83
2021/04/29 07:46:04;;;;;;;3.60;1.90;;;26.50;48.60;;;;;;5054329;28;20454;-83
2021/04/29 07:48:30;;;;;;;4.90;1.93;;;26.50;48.60;;;;;;5053972;28;20449;-83
2021/04/29 07:50:57;;;;;;;2.80;1.77;;;26.60;48.60;;;;;;5054105;28;20439;-83
2021/04/29 07:53:23;;;;;;;5.67;1.77;;;26.70;48.60;;;;;;5054116;28;20441;-83
2021/04/29 07:55:49;;;;;;;2.60;1.30;;;26.70;48.70;;;;;;5054247;28;20445;-84
2021/04/29 07:58:16;;;;;;;10.80;1.67;;;26.70;48.70;;;;;;5054496;28;21012;-83
2021/04/29 08:00:42;;;;;;;3.80;1.30;;;26.70;48.70;;;;;;5054369;28;20455;-83
2021/04/29 08:03:10;;;;;;;3.40;1.90;;;26.70;48.80;;;;;;5054271;28;20444;-84
2021/04/29 08:05:36;;;;;;;6.60;1.60;;;26.70;48.90;;;;;;5054406;28;20444;-83
2021/04/29 08:08:02;;;;;;;2.10;1.57;;;26.80;49.00;;;;;;5054077;28;20441;-83
2021/04/29 08:10:29;;;;;;;4.03;2.27;;;26.80;49.00;;;;;;5054315;28;20480;-86
2021/04/29 08:12:55;;;;;;;1.60;1.30;;;26.90;49.00;;;;;;5054278;28;20448;-82
2021/04/29 08:15:21;;;;;;;3.20;1.93;;;26.90;48.90;;;;;;5054223;28;20449;-83
2021/04/29 08:17:48;;;;;;;1.80;1.63;;;27.00;49.10;;;;;;5054194;28;20439;-83
2021/04/29 08:20:15;;;;;;;6.03;2.83;;;27.00;49.10;;;;;;5053914;28;20486;-88
2021/04/29 08:22:42;;;;;;;2.30;2.20;;;27.00;49.00;;;;;;5055384;28;20544;-89
2021/04/29 08:25:09;;;;;;;3.87;2.27;;;27.10;48.10;;;;;;5054608;28;20547;-85
2021/04/29 08:27:36;;;;;;;2.17;1.87;;;27.10;47.80;;;;;;5054034;28;20442;-88
2021/04/29 08:30:03;;;;;;;6.07;1.70;;;27.10;48.40;;;;;;5053620;28;20473;-86
2021/04/29 08:32:30;;;;;;;1.93;1.73;;;27.10;48.50;;;;;;5050979;28;20449;-86
2021/04/29 08:34:56;;;;;;;1.60;1.40;;;27.10;48.50;;;;;;5050587;28;20441;-90
2021/04/29 08:37:24;;;;;;;2.20;1.37;;;27.10;48.40;;;;;;5051383;28;20512;-87
